createdAt,value
2018-06-30T00:01:51.211Z,13.80
2018-06-30T00:03:56.601Z,13.90
2018-06-30T00:06:00.996Z,18.30
2018-06-30T00:08:05.746Z,14.50
2018-06-30T00:10:10.291Z,14.60
2018-06-30T00:12:14.688Z,14.60
2018-06-30T00:14:20.157Z,13.70
2018-06-30T00:16:25.033Z,13.70
2018-06-30T00:18:29.513Z,14.70
2018-06-30T00:20:35.431Z,14.80
2018-06-30T00:22:40.757Z,15.00
2018-06-30T00:24:45.188Z,15.60
2018-06-30T00:26:54.171Z,16.10
2018-06-30T00:28:58.787Z,16.10
2018-06-30T00:31:03.818Z,15.10
2018-06-30T00:33:08.238Z,16.00
2018-06-30T00:35:12.546Z,15.60
2018-06-30T00:39:21.485Z,17.70
2018-06-30T00:41:25.854Z,16.50
2018-06-30T00:43:30.293Z,17.00
2018-06-30T00:45:34.681Z,16.50
2018-06-30T00:47:39.104Z,16.90
2018-06-30T00:49:43.523Z,17.30
2018-06-30T00:51:48.003Z,18.00
2018-06-30T00:53:52.508Z,17.60
2018-06-30T00:55:58.428Z,17.60
2018-06-30T00:58:02.737Z,18.30
2018-06-30T01:00:07.250Z,18.50
2018-06-30T01:02:12.518Z,18.70
2018-06-30T01:04:16.965Z,18.90
2018-06-30T01:06:21.440Z,19.40
2018-06-30T01:08:25.803Z,21.00
2018-06-30T01:10:30.455Z,20.90
2018-06-30T01:12:34.866Z,21.30
2018-06-30T01:14:39.446Z,21.90
2018-06-30T01:16:43.872Z,22.00
2018-06-30T01:18:48.248Z,21.90
2018-06-30T01:20:52.659Z,22.40
2018-06-30T01:25:04.789Z,22.40
2018-06-30T01:27:09.190Z,22.80
2018-06-30T01:29:13.712Z,22.80
2018-06-30T01:31:18.273Z,22.90
2018-06-30T01:33:22.646Z,23.10
2018-06-30T01:35:27.036Z,23.30
2018-06-30T01:37:31.355Z,23.50
2018-06-30T01:39:35.803Z,23.50
2018-06-30T01:41:40.899Z,23.70
2018-06-30T01:43:45.388Z,24.70
2018-06-30T01:45:49.719Z,25.90
2018-06-30T01:47:54.090Z,26.60
2018-06-30T01:49:58.425Z,27.00
2018-06-30T01:52:03.998Z,27.40
2018-06-30T01:54:08.314Z,27.60
2018-06-30T01:56:12.857Z,28.70
2018-06-30T01:58:17.213Z,29.30
2018-06-30T02:00:21.582Z,30.00
2018-06-30T02:02:26.001Z,30.90
2018-06-30T02:04:30.906Z,32.00
2018-06-30T02:06:35.639Z,32.80
2018-06-30T02:08:40.092Z,34.10
2018-06-30T02:10:44.461Z,36.20
2018-06-30T02:12:48.936Z,36.90
2018-06-30T02:14:53.295Z,37.20
2018-06-30T02:16:57.596Z,37.40
2018-06-30T02:19:02.027Z,37.50
2018-06-30T02:21:06.338Z,37.80
2018-06-30T02:23:10.954Z,38.00
2018-06-30T02:25:15.273Z,38.40
2018-06-30T02:27:19.621Z,38.40
2018-06-30T02:29:24.189Z,44.50
2018-06-30T02:31:28.538Z,40.50
2018-06-30T02:33:33.012Z,41.10
2018-06-30T02:35:37.457Z,41.20
2018-06-30T02:37:41.917Z,41.70
2018-06-30T02:39:46.298Z,41.10
2018-06-30T02:41:50.726Z,41.50
2018-06-30T02:43:55.267Z,41.70
2018-06-30T02:45:59.766Z,41.50
2018-06-30T02:48:04.122Z,40.90
2018-06-30T02:50:08.542Z,41.50
2018-06-30T02:52:12.910Z,41.40
2018-06-30T02:54:17.234Z,41.60
2018-06-30T02:56:21.589Z,40.60
2018-06-30T02:58:26.079Z,40.30
2018-06-30T03:00:30.479Z,40.70
2018-06-30T03:02:34.876Z,40.80
2018-06-30T03:04:39.368Z,41.10
2018-06-30T03:06:43.759Z,41.70
2018-06-30T03:08:48.107Z,41.90
2018-06-30T03:10:52.492Z,42.60
2018-06-30T03:12:56.802Z,43.00
2018-06-30T03:15:01.254Z,43.00
2018-06-30T03:17:06.345Z,46.20
2018-06-30T03:21:14.748Z,47.80
2018-06-30T03:23:19.137Z,48.30
2018-06-30T03:25:23.550Z,49.50
2018-06-30T03:27:27.936Z,49.00
2018-06-30T03:29:32.269Z,51.10
2018-06-30T03:31:36.630Z,51.30
2018-06-30T03:35:44.952Z,50.60
2018-06-30T03:37:49.312Z,50.90
2018-06-30T03:39:53.770Z,51.00
2018-06-30T03:41:58.120Z,50.90
2018-06-30T03:44:02.577Z,50.60
2018-06-30T03:46:07.036Z,52.00
2018-06-30T03:48:11.420Z,51.90
2018-06-30T03:50:15.857Z,51.90
2018-06-30T03:52:20.308Z,52.00
2018-06-30T03:54:24.664Z,51.90
2018-06-30T03:56:29.002Z,50.10
2018-06-30T03:58:33.442Z,50.50
2018-06-30T04:00:37.941Z,50.40
2018-06-30T04:02:42.312Z,52.60
2018-06-30T04:04:46.709Z,52.10
2018-06-30T04:06:51.181Z,52.10
2018-06-30T04:08:55.757Z,52.20
2018-06-30T04:11:00.150Z,50.70
2018-06-30T04:13:04.528Z,50.80
2018-06-30T04:15:08.917Z,51.20
2018-06-30T04:17:13.298Z,51.30
2018-06-30T04:19:17.593Z,51.50
2018-06-30T04:21:22.099Z,51.60
2018-06-30T04:23:26.503Z,52.00
2018-06-30T04:25:30.904Z,53.90
2018-06-30T04:27:35.336Z,53.30
2018-06-30T04:29:39.748Z,53.70
2018-06-30T04:31:44.152Z,54.20
2018-06-30T04:33:48.418Z,55.20
2018-06-30T04:35:52.797Z,55.30
2018-06-30T04:40:04.000Z,56.70
2018-06-30T04:42:08.446Z,56.80
2018-06-30T04:44:12.743Z,56.80
2018-06-30T04:46:17.124Z,57.20
2018-06-30T04:48:22.756Z,57.20
2018-06-30T04:50:27.073Z,57.60
2018-06-30T04:52:31.560Z,62.60
2018-06-30T04:54:35.959Z,57.90
2018-06-30T04:56:40.311Z,58.20
2018-06-30T04:58:44.728Z,58.50
2018-06-30T05:00:49.088Z,58.30
2018-06-30T05:02:53.466Z,57.30
2018-06-30T05:04:57.845Z,56.90
2018-06-30T05:07:02.192Z,58.90
2018-06-30T05:09:07.805Z,58.40
2018-06-30T05:11:12.143Z,61.30
2018-06-30T05:13:16.704Z,60.10
2018-06-30T05:15:21.089Z,60.80
2018-06-30T05:17:25.399Z,61.40
2018-06-30T05:19:29.759Z,60.80
2018-06-30T05:21:34.122Z,60.60
2018-06-30T05:23:38.480Z,60.50
2018-06-30T05:25:42.826Z,60.50
2018-06-30T05:27:47.221Z,60.30
2018-06-30T05:29:51.645Z,57.40
2018-06-30T05:31:55.996Z,54.70
2018-06-30T05:34:00.533Z,52.70
2018-06-30T05:36:04.864Z,51.80
2018-06-30T05:38:09.181Z,47.10
2018-06-30T05:40:13.515Z,45.20
2018-06-30T05:42:17.897Z,45.30
2018-06-30T05:44:22.358Z,45.10
2018-06-30T05:46:26.789Z,45.50
2018-06-30T05:48:31.233Z,44.10
2018-06-30T05:50:35.728Z,43.10
2018-06-30T05:52:40.116Z,43.40
2018-06-30T05:54:44.567Z,44.20
2018-06-30T05:56:49.037Z,39.80
2018-06-30T05:58:53.723Z,40.40
2018-06-30T06:00:58.230Z,40.10
2018-06-30T06:03:02.761Z,43.20
2018-06-30T06:05:07.946Z,39.10
2018-06-30T06:07:12.324Z,37.30
2018-06-30T06:09:16.628Z,35.90
2018-06-30T06:11:21.062Z,37.20
2018-06-30T06:13:25.382Z,36.40
2018-06-30T06:15:29.839Z,36.10
2018-06-30T06:17:34.357Z,34.90
2018-06-30T06:19:38.936Z,32.70
2018-06-30T06:21:43.362Z,31.50
2018-06-30T06:25:51.678Z,28.30
2018-06-30T06:27:56.117Z,27.40
2018-06-30T06:30:00.461Z,23.30
2018-06-30T06:32:05.004Z,22.30
2018-06-30T06:34:09.349Z,22.70
2018-06-30T06:36:13.747Z,22.10
2018-06-30T06:38:18.099Z,20.10
2018-06-30T06:40:22.551Z,20.30
2018-06-30T06:42:27.038Z,21.60
2018-06-30T06:44:31.508Z,20.50
2018-06-30T06:46:35.935Z,19.90
2018-06-30T06:48:40.296Z,14.30
2018-06-30T06:50:44.638Z,14.90
2018-06-30T06:52:49.451Z,16.70
2018-06-30T06:54:53.898Z,17.00
2018-06-30T06:56:58.212Z,12.20
2018-06-30T06:59:02.620Z,13.30
2018-06-30T07:01:07.021Z,13.30
2018-06-30T07:03:11.534Z,13.10
2018-06-30T07:05:15.866Z,11.20
2018-06-30T07:07:20.244Z,8.30
2018-06-30T07:09:24.715Z,6.40
2018-06-30T07:11:29.096Z,7.30
2018-06-30T07:13:33.494Z,7.70
2018-06-30T07:15:38.101Z,8.80
2018-06-30T07:17:46.042Z,8.20
2018-06-30T07:19:50.633Z,6.90
2018-06-30T07:21:55.014Z,5.50
2018-06-30T07:24:02.265Z,6.00
2018-06-30T07:26:06.998Z,4.60
2018-06-30T07:28:11.308Z,5.50
2018-06-30T07:30:16.593Z,5.60
2018-06-30T07:32:21.087Z,2.30
2018-06-30T07:34:26.982Z,2.70
2018-06-30T07:36:31.948Z,1.50
2018-06-30T07:38:37.497Z,1.00
2018-06-30T07:40:42.157Z,1.00
2018-06-30T07:42:46.592Z,1.00
2018-06-30T07:44:51.266Z,1.00
2018-06-30T07:46:55.800Z,1.00
2018-06-30T07:49:01.154Z,1.00
2018-06-30T07:51:05.699Z,1.00
2018-06-30T07:53:10.122Z,1.00
2018-06-30T07:55:14.679Z,1.00
2018-06-30T07:57:19.920Z,1.00
2018-06-30T07:59:24.338Z,1.00
2018-06-30T08:01:28.826Z,1.00
2018-06-30T08:03:33.300Z,1.00
2018-06-30T08:05:39.295Z,1.00
2018-06-30T08:07:43.643Z,1.00
2018-06-30T08:09:48.393Z,1.00
2018-06-30T08:11:52.996Z,1.00
2018-06-30T08:13:58.073Z,1.00
2018-06-30T08:16:02.974Z,1.00
2018-06-30T08:18:07.878Z,1.00
2018-06-30T08:20:12.259Z,1.00
2018-06-30T08:22:17.369Z,1.00
2018-06-30T08:26:26.020Z,1.00
2018-06-30T08:28:31.396Z,1.00
2018-06-30T08:30:35.817Z,1.00
2018-06-30T08:32:40.243Z,1.00
2018-06-30T08:34:44.617Z,1.00
2018-06-30T08:36:49.146Z,1.00
2018-06-30T08:38:53.639Z,1.00
2018-06-30T08:43:02.071Z,1.00
2018-06-30T08:45:06.461Z,1.00
2018-06-30T08:47:10.760Z,1.00
2018-06-30T08:49:15.129Z,1.00
2018-06-30T08:51:19.723Z,1.00
2018-06-30T08:53:24.179Z,1.00
2018-06-30T08:55:28.678Z,1.00
2018-06-30T08:57:33.205Z,1.00
2018-06-30T08:59:38.187Z,1.00
2018-06-30T09:01:42.824Z,1.00
2018-06-30T09:05:51.020Z,1.00
2018-06-30T09:07:55.332Z,1.00
2018-06-30T09:09:59.848Z,1.00
2018-06-30T09:12:04.363Z,1.00
2018-06-30T09:14:08.865Z,1.00
2018-06-30T09:16:13.232Z,1.00
2018-06-30T09:18:17.597Z,1.00
2018-06-30T09:20:21.974Z,1.00
2018-06-30T09:22:26.343Z,1.00
2018-06-30T09:24:30.791Z,1.00
2018-06-30T09:26:35.284Z,1.00
2018-06-30T09:28:39.605Z,1.00
2018-06-30T09:30:44.064Z,1.00
2018-06-30T09:32:48.492Z,1.00
2018-06-30T09:34:53.069Z,1.00
2018-06-30T09:36:57.777Z,1.00
2018-06-30T09:39:02.126Z,1.00
2018-06-30T09:41:06.546Z,1.00
2018-06-30T09:43:11.057Z,1.00
2018-06-30T09:45:15.428Z,1.00
2018-06-30T09:47:19.775Z,1.00
2018-06-30T09:49:24.364Z,1.00
2018-06-30T09:51:28.845Z,1.00
2018-06-30T09:53:33.172Z,1.00
2018-06-30T09:55:37.597Z,1.00
2018-06-30T09:57:41.969Z,1.00
2018-06-30T09:59:46.275Z,1.00
2018-06-30T10:01:50.709Z,1.00
2018-06-30T10:03:55.173Z,1.00
2018-06-30T10:05:59.608Z,1.00
2018-06-30T10:08:04.017Z,1.00
2018-06-30T10:10:08.781Z,1.00
2018-06-30T10:12:14.413Z,1.00
2018-06-30T10:14:18.943Z,1.00
2018-06-30T10:16:23.357Z,1.00
2018-06-30T10:18:27.743Z,1.00
2018-06-30T10:20:32.119Z,1.00
2018-06-30T10:22:36.498Z,1.00
2018-06-30T10:24:40.895Z,1.00
2018-06-30T10:26:45.398Z,1.00
2018-06-30T10:28:49.743Z,1.00
2018-06-30T10:30:54.175Z,1.00
2018-06-30T10:32:58.706Z,1.00
2018-06-30T10:35:03.107Z,1.00
2018-06-30T10:37:07.708Z,1.00
2018-06-30T10:39:12.826Z,1.00
2018-06-30T10:41:17.232Z,1.00
2018-06-30T10:43:21.622Z,1.00
2018-06-30T10:45:26.009Z,1.00
2018-06-30T10:47:30.435Z,1.00
2018-06-30T10:49:34.831Z,1.00
2018-06-30T10:51:39.270Z,1.00
2018-06-30T10:53:43.708Z,1.00
2018-06-30T10:55:48.154Z,1.00
2018-06-30T10:57:52.746Z,1.00
2018-06-30T10:59:57.143Z,1.00
2018-06-30T11:02:01.535Z,1.00
2018-06-30T11:04:06.060Z,1.00
2018-06-30T11:06:10.465Z,1.00
2018-06-30T11:08:14.821Z,1.00
2018-06-30T11:10:19.191Z,1.00
2018-06-30T11:12:23.710Z,1.00
2018-06-30T11:14:28.121Z,1.00
2018-06-30T11:16:32.484Z,1.00
2018-06-30T11:18:37.007Z,1.00
2018-06-30T11:20:41.285Z,1.00
2018-06-30T11:22:46.100Z,1.00
2018-06-30T11:24:50.858Z,1.00
2018-06-30T11:26:55.238Z,1.00
2018-06-30T11:28:59.611Z,1.00
2018-06-30T11:31:04.045Z,1.00
2018-06-30T11:33:11.052Z,1.00
2018-06-30T11:35:20.322Z,1.00
2018-06-30T11:37:26.066Z,1.00
2018-06-30T11:39:30.761Z,1.00
2018-06-30T11:41:35.451Z,1.00
2018-06-30T11:43:45.093Z,1.00
2018-06-30T11:45:51.767Z,1.00
2018-06-30T11:47:57.403Z,1.00
2018-06-30T11:50:02.348Z,1.00
2018-06-30T11:52:07.768Z,1.00
2018-06-30T11:54:14.849Z,1.00
2018-06-30T11:56:19.736Z,1.00
2018-06-30T11:58:26.944Z,1.00
2018-06-30T12:00:31.874Z,1.00
2018-06-30T12:02:37.445Z,1.00
2018-06-30T12:04:42.444Z,1.00
2018-06-30T12:06:46.965Z,1.00
2018-06-30T12:08:51.861Z,1.00
2018-06-30T12:10:56.702Z,1.00
2018-06-30T12:13:03.520Z,1.00
2018-06-30T12:15:08.485Z,1.00
2018-06-30T12:17:14.740Z,1.00
2018-06-30T12:19:19.572Z,1.00
2018-06-30T12:21:24.209Z,1.00
2018-06-30T12:23:28.717Z,1.00
2018-06-30T12:25:33.136Z,1.00
2018-06-30T12:27:37.602Z,1.00
2018-06-30T12:29:42.090Z,1.00
2018-06-30T12:31:46.548Z,1.00
2018-06-30T12:33:50.992Z,1.00
2018-06-30T12:35:55.441Z,1.00
2018-06-30T12:37:59.846Z,1.00
2018-06-30T12:40:04.256Z,1.00
2018-06-30T12:42:08.724Z,1.00
2018-06-30T12:44:13.122Z,1.00
2018-06-30T12:46:17.610Z,1.00
2018-06-30T12:48:22.034Z,1.00
2018-06-30T12:50:26.306Z,1.00
2018-06-30T12:54:34.860Z,1.00
2018-06-30T12:56:39.204Z,1.00
2018-06-30T12:58:43.677Z,1.00
2018-06-30T13:00:48.094Z,1.00
2018-06-30T13:02:52.520Z,1.00
2018-06-30T13:04:57.043Z,1.00
2018-06-30T13:07:01.562Z,1.00
2018-06-30T13:09:09.238Z,1.00
2018-06-30T13:11:13.719Z,1.00
2018-06-30T13:13:18.068Z,1.00
2018-06-30T13:15:22.550Z,1.00
2018-06-30T13:17:27.068Z,1.00
2018-06-30T13:19:31.437Z,1.00
2018-06-30T13:21:35.875Z,1.00
2018-06-30T13:23:40.239Z,1.00
2018-06-30T13:25:45.083Z,1.00
2018-06-30T13:27:49.513Z,1.00
2018-06-30T13:29:54.013Z,1.00
2018-06-30T13:31:58.801Z,1.00
2018-06-30T13:34:03.319Z,1.00
2018-06-30T13:36:07.741Z,1.00
2018-06-30T13:38:12.315Z,1.00
2018-06-30T13:40:16.941Z,1.00
2018-06-30T13:42:21.479Z,1.00
2018-06-30T13:44:26.180Z,1.00
2018-06-30T13:46:30.957Z,1.00
2018-06-30T13:48:37.901Z,1.00
2018-06-30T13:50:43.555Z,1.00
2018-06-30T13:52:48.073Z,1.00
2018-06-30T13:54:53.014Z,1.00
2018-06-30T13:56:58.872Z,1.00
2018-06-30T13:59:04.064Z,1.00
2018-06-30T14:01:08.797Z,1.00
2018-06-30T14:03:13.282Z,1.00
2018-06-30T14:05:17.650Z,1.00
2018-06-30T14:07:21.940Z,1.00
2018-06-30T14:09:26.658Z,1.00
2018-06-30T14:11:31.086Z,1.00
2018-06-30T14:13:35.826Z,1.00
2018-06-30T14:15:40.275Z,1.00
2018-06-30T14:17:44.792Z,1.00
2018-06-30T14:19:49.496Z,1.00
2018-06-30T14:21:53.915Z,1.00
2018-06-30T14:23:58.430Z,1.00
2018-06-30T14:26:02.929Z,1.00
2018-06-30T14:28:08.691Z,1.00
2018-06-30T14:30:13.601Z,1.00
2018-06-30T14:32:17.998Z,1.00
2018-06-30T14:34:22.549Z,1.00
2018-06-30T14:36:27.202Z,1.00
2018-06-30T14:38:31.812Z,1.00
2018-06-30T14:40:36.308Z,1.00
2018-06-30T14:42:40.827Z,1.00
2018-06-30T14:44:45.352Z,1.00
2018-06-30T14:46:49.848Z,1.00
2018-06-30T14:48:54.289Z,1.00
2018-06-30T14:50:58.764Z,1.00
2018-06-30T14:53:03.301Z,1.00
2018-06-30T14:55:07.791Z,1.00
2018-06-30T14:57:12.204Z,1.00
2018-06-30T14:59:16.869Z,1.00
2018-06-30T15:01:21.487Z,1.00
2018-06-30T15:03:26.478Z,1.00
2018-06-30T15:05:30.998Z,1.00
2018-06-30T15:07:35.504Z,1.00
2018-06-30T15:09:39.989Z,1.00
2018-06-30T15:11:45.531Z,1.00
2018-06-30T15:13:50.287Z,1.00
2018-06-30T15:15:55.137Z,1.00
2018-06-30T15:18:00.261Z,1.00
2018-06-30T15:20:07.609Z,1.00
2018-06-30T15:22:12.550Z,1.00
2018-06-30T15:24:17.287Z,1.00
2018-06-30T15:26:21.777Z,1.00
2018-06-30T15:28:26.458Z,1.00
2018-06-30T15:30:31.108Z,1.00
2018-06-30T15:32:35.822Z,1.00
2018-06-30T15:34:40.527Z,1.00
2018-06-30T15:36:48.154Z,1.00
2018-06-30T15:38:53.855Z,1.00
2018-06-30T15:40:58.647Z,1.00
2018-06-30T15:43:03.512Z,1.00
2018-06-30T15:45:09.335Z,1.00
2018-06-30T15:47:14.048Z,1.00
2018-06-30T15:49:18.467Z,1.00
2018-06-30T15:51:22.931Z,1.00
2018-06-30T15:53:27.300Z,1.00
2018-06-30T15:55:31.740Z,1.00
2018-06-30T15:59:40.343Z,1.00
2018-06-30T16:01:45.008Z,1.00
2018-06-30T16:03:49.467Z,1.00
2018-06-30T16:05:54.206Z,1.00
2018-06-30T16:10:02.765Z,1.00
2018-06-30T16:12:11.523Z,1.00
2018-06-30T16:14:16.556Z,1.00
2018-06-30T16:16:21.025Z,1.00
2018-06-30T16:18:25.582Z,1.00
2018-06-30T16:20:30.134Z,1.00
2018-06-30T16:22:34.651Z,1.00
2018-06-30T16:24:39.036Z,1.00
2018-06-30T16:26:43.711Z,1.00
2018-06-30T16:28:48.215Z,1.00
2018-06-30T16:30:52.772Z,1.00
2018-06-30T16:32:57.480Z,1.00
2018-06-30T16:35:01.972Z,1.00
2018-06-30T16:37:06.397Z,1.00
2018-06-30T16:39:12.356Z,1.00
2018-06-30T16:41:16.740Z,1.00
2018-06-30T16:43:21.138Z,1.00
2018-06-30T16:45:25.619Z,1.00
2018-06-30T16:47:30.016Z,1.00
2018-06-30T16:49:34.578Z,1.00
2018-06-30T16:51:39.026Z,1.00
2018-06-30T16:53:43.502Z,1.00
2018-06-30T16:55:48.195Z,1.00
2018-06-30T16:57:52.706Z,1.00
2018-06-30T16:59:57.246Z,1.00
2018-06-30T17:02:02.635Z,1.00
2018-06-30T17:04:07.272Z,1.00
2018-06-30T17:06:11.800Z,1.00
2018-06-30T17:08:16.417Z,1.00
2018-06-30T17:10:21.012Z,1.00
2018-06-30T17:12:25.729Z,1.00
2018-06-30T17:14:30.593Z,1.00
2018-06-30T17:16:36.415Z,1.00
2018-06-30T17:18:41.102Z,1.00
2018-06-30T17:20:45.578Z,1.00
2018-06-30T17:24:54.192Z,1.00
2018-06-30T17:26:58.572Z,1.00
2018-06-30T17:29:03.084Z,1.00
2018-06-30T17:31:07.530Z,1.00
2018-06-30T17:33:12.157Z,1.00
2018-06-30T17:35:17.453Z,1.00
2018-06-30T17:37:22.027Z,1.00
2018-06-30T17:39:26.576Z,1.00
2018-06-30T17:41:31.460Z,1.00
2018-06-30T17:43:36.144Z,1.00
2018-06-30T17:45:40.912Z,1.00
2018-06-30T17:47:45.510Z,1.00
2018-06-30T17:49:50.459Z,1.00
2018-06-30T17:51:55.093Z,1.00
2018-06-30T17:53:59.614Z,1.00
2018-06-30T17:56:04.847Z,1.00
2018-06-30T17:58:09.537Z,1.00
2018-06-30T18:00:14.367Z,1.00
2018-06-30T18:02:20.096Z,1.00
2018-06-30T18:04:24.827Z,1.00
2018-06-30T18:06:29.509Z,1.00
2018-06-30T18:08:34.246Z,1.00
2018-06-30T18:10:38.930Z,1.00
2018-06-30T18:12:43.527Z,1.00
2018-06-30T18:14:48.120Z,1.00
2018-06-30T18:16:52.870Z,1.00
2018-06-30T18:18:57.366Z,1.00
2018-06-30T18:21:01.906Z,1.00
2018-06-30T18:23:06.350Z,1.00
2018-06-30T18:25:10.743Z,1.00
2018-06-30T18:27:15.406Z,1.00
2018-06-30T18:29:19.935Z,1.00
2018-06-30T18:31:24.434Z,1.00
2018-06-30T18:33:29.121Z,1.00
2018-06-30T18:35:33.801Z,1.00
2018-06-30T18:37:38.317Z,1.00
2018-06-30T18:39:42.958Z,1.00
2018-06-30T18:41:47.638Z,1.00
2018-06-30T18:43:52.216Z,1.00
2018-06-30T18:45:56.727Z,1.00
2018-06-30T18:48:01.262Z,1.00
2018-06-30T18:50:06.017Z,1.00
2018-06-30T18:52:10.661Z,1.00
2018-06-30T18:54:18.075Z,1.00
2018-06-30T18:56:25.927Z,1.00
2018-06-30T18:58:30.666Z,1.00
2018-06-30T19:00:35.891Z,1.00
2018-06-30T19:02:40.597Z,1.00
2018-06-30T19:04:45.352Z,1.00
2018-06-30T19:06:50.077Z,1.00
2018-06-30T19:08:54.696Z,1.00
2018-06-30T19:10:59.416Z,1.00
2018-06-30T19:15:08.858Z,1.00
2018-06-30T19:17:13.416Z,1.00
2018-06-30T19:19:17.990Z,1.00
2018-06-30T19:21:22.710Z,1.00
2018-06-30T19:23:27.561Z,1.00
2018-06-30T19:25:32.190Z,1.00
2018-06-30T19:27:36.779Z,1.00
2018-06-30T19:29:41.382Z,1.00
2018-06-30T19:31:46.138Z,1.00
2018-06-30T19:33:50.782Z,1.00
2018-06-30T19:35:55.618Z,1.00
2018-06-30T19:38:00.261Z,1.00
2018-06-30T19:40:05.194Z,1.00
2018-06-30T19:42:09.772Z,1.00
2018-06-30T19:46:18.820Z,1.00
2018-06-30T19:48:23.518Z,1.00
2018-06-30T19:50:28.239Z,1.00
2018-06-30T19:52:32.861Z,1.00
2018-06-30T19:54:37.611Z,1.00
2018-06-30T19:56:42.359Z,1.00
2018-06-30T19:58:47.037Z,1.00
2018-06-30T20:00:51.511Z,1.00
2018-06-30T20:02:56.095Z,1.00
2018-06-30T20:05:00.767Z,1.00
2018-06-30T20:07:05.527Z,1.00
2018-06-30T20:09:10.126Z,1.00
2018-06-30T20:11:14.699Z,1.00
2018-06-30T20:13:19.178Z,1.00
2018-06-30T20:17:27.861Z,1.00
2018-06-30T20:19:32.309Z,1.00
2018-06-30T20:21:36.788Z,1.00
2018-06-30T20:23:41.310Z,1.00
2018-06-30T20:25:46.162Z,1.00
2018-06-30T20:27:50.918Z,1.00
2018-06-30T20:29:55.837Z,1.00
2018-06-30T20:32:00.738Z,1.00
2018-06-30T20:34:05.680Z,1.00
2018-06-30T20:36:10.526Z,1.00
2018-06-30T20:38:15.053Z,1.00
2018-06-30T20:40:19.620Z,1.00
2018-06-30T20:42:24.484Z,1.00
2018-06-30T20:44:29.238Z,1.00
2018-06-30T20:46:34.036Z,1.00
2018-06-30T20:48:38.580Z,1.00
2018-06-30T20:50:43.325Z,1.00
2018-06-30T20:52:47.738Z,1.00
2018-06-30T20:54:52.440Z,1.00
2018-06-30T20:56:57.124Z,1.00
2018-06-30T20:59:01.636Z,1.00
2018-06-30T21:01:06.173Z,1.00
2018-06-30T21:03:12.334Z,1.00
2018-06-30T21:05:16.882Z,1.00
2018-06-30T21:09:25.499Z,1.00
2018-06-30T21:11:29.991Z,1.00
2018-06-30T21:13:35.017Z,1.00
2018-06-30T21:15:39.485Z,1.00
2018-06-30T21:17:44.047Z,1.00
2018-06-30T21:19:48.598Z,1.00
2018-06-30T21:21:53.146Z,1.00
2018-06-30T21:23:57.597Z,1.00
2018-06-30T21:26:02.102Z,1.00
2018-06-30T21:28:06.600Z,1.00
2018-06-30T21:30:11.792Z,1.00
2018-06-30T21:32:16.294Z,1.00
2018-06-30T21:34:20.772Z,1.00
2018-06-30T21:36:25.200Z,1.00
2018-06-30T21:38:29.515Z,1.00
2018-06-30T21:40:33.864Z,1.00
2018-06-30T21:42:38.278Z,1.00
2018-06-30T21:44:42.747Z,1.00
2018-06-30T21:46:47.335Z,1.00
2018-06-30T21:48:51.907Z,1.00
2018-06-30T21:50:56.269Z,1.00
2018-06-30T21:53:00.847Z,1.00
2018-06-30T21:55:05.302Z,1.00
2018-06-30T21:57:09.709Z,1.00
2018-06-30T21:59:14.275Z,1.00
2018-06-30T22:03:28.757Z,1.00
2018-06-30T22:05:33.150Z,1.00
2018-06-30T22:07:37.679Z,1.00
2018-06-30T22:09:42.137Z,1.00
2018-06-30T22:11:46.584Z,1.00
2018-06-30T22:13:50.965Z,1.00
2018-06-30T22:15:55.574Z,1.00
2018-06-30T22:17:59.961Z,1.00
2018-06-30T22:20:04.744Z,1.00
2018-06-30T22:22:09.250Z,1.00
2018-06-30T22:24:13.776Z,1.00
2018-06-30T22:26:18.091Z,1.00
2018-06-30T22:28:22.437Z,1.00
2018-06-30T22:30:26.956Z,1.00
2018-06-30T22:32:31.284Z,1.00
2018-06-30T22:34:35.708Z,1.00
2018-06-30T22:38:44.062Z,1.00
2018-06-30T22:40:48.523Z,1.00
2018-06-30T22:42:53.107Z,1.00
2018-06-30T22:44:57.673Z,1.00
2018-06-30T22:47:02.311Z,1.00
2018-06-30T22:51:10.808Z,1.00
2018-06-30T22:53:15.219Z,1.00
2018-06-30T22:55:19.645Z,1.00
2018-06-30T22:57:24.047Z,1.00
2018-06-30T22:59:28.385Z,1.00
2018-06-30T23:01:32.985Z,1.00
2018-06-30T23:03:37.421Z,1.00
2018-06-30T23:05:42.414Z,1.00
2018-06-30T23:07:46.775Z,1.00
2018-06-30T23:09:51.579Z,1.00
2018-06-30T23:11:55.995Z,1.00
2018-06-30T23:14:00.370Z,1.00
2018-06-30T23:16:04.829Z,1.00
2018-06-30T23:18:09.225Z,1.00
2018-06-30T23:20:13.635Z,1.00
2018-06-30T23:22:29.448Z,1.00
2018-06-30T23:24:34.075Z,1.00
2018-06-30T23:26:38.390Z,1.00
2018-06-30T23:28:42.738Z,1.00
2018-06-30T23:30:47.174Z,1.00
2018-06-30T23:32:51.983Z,1.00
2018-06-30T23:34:56.405Z,1.00
2018-06-30T23:37:00.774Z,1.00
2018-06-30T23:39:08.754Z,1.00
2018-06-30T23:41:13.181Z,1.00
2018-06-30T23:43:17.530Z,1.00
2018-06-30T23:45:22.557Z,1.00
2018-06-30T23:47:27.000Z,1.00
2018-06-30T23:49:31.457Z,1.00
2018-06-30T23:51:35.846Z,1.00
2018-06-30T23:53:40.137Z,1.00
2018-06-30T23:55:44.504Z,1.00
2018-06-30T23:57:48.943Z,1.00
2018-06-30T23:59:53.383Z,1.00
